Skip Navigation LinksHome page > Weather > Current weather Skip Navigation Links

Current Weather

Virginia Tech, Blacksburg, Va.

For information only: do not use for flight planning or navigation.
Latest weather
Observation time Wednesday, February 20, 2019 12:35 PM EST
Local time Wednesday, February 20, 2019 12:56 PM EST
Flight conditions Low Instrument Meteorological Conditions
Winds
Wind direction East (80°)
Wind speed 6 mph
Visibility 1.75 mi.
Present weather unknown precipitation
Sky condition
Ceiling 400 ft. overcast
Cloud layer overcast 400 ft.
Temperature 32°F
Dewpoint 32°F
Altimeter 30.29 in.Hg
Derived measurements
Relative humidity 100%
Wind chill 26°F
Density altitude -48 ft.
Remarks
Fully automated report.
Automated weather observing station with precipitation discriminator.
METAR KBCB 201735Z AUTO 08005KT 1 3/4SM UP OVC004 00/00 A3029 RMK AO2 T10011001

Settings

Location code

InnerDrive.Weather 4.0.6770.0 Release CLR 4.0.30319.42000
Copyright ©2018 Inner Drive Technology. All rights reserved. Portions Copyright ©1986-2018 David Braverman.

Find weather

Site navigation


Skip Navigation Links

Place info

Page info

PayPal - The safer, easier way to pay online!

Return home.

Copyright ©2019 Inner Drive Technology. Purveyors of fine, hand-crafted computer software. Page printed 2019-02-20T17:56:44 UTC.